createdAt,value
2018-12-15T00:00:48.635Z,1005.00
2018-12-15T00:01:54.642Z,1004.96
2018-12-15T00:03:00.669Z,1005.01
2018-12-15T00:04:07.154Z,1004.92
2018-12-15T00:05:12.675Z,1004.86
2018-12-15T00:06:19.176Z,1004.76
2018-12-15T00:07:24.693Z,1004.73
2018-12-15T00:08:30.702Z,1004.46
2018-12-15T00:09:36.707Z,1004.37
2018-12-15T00:10:42.716Z,1004.19
2018-12-15T00:11:48.718Z,1004.09
2018-12-15T00:12:54.719Z,1003.99
2018-12-15T00:14:00.770Z,1004.05
2018-12-15T00:15:06.809Z,1004.05
2018-12-15T00:16:12.760Z,1004.03
2018-12-15T00:17:18.761Z,1004.07
2018-12-15T00:18:24.772Z,1004.11
2018-12-15T00:19:31.273Z,1004.22
2018-12-15T00:20:37.273Z,1004.17
2018-12-15T00:21:42.792Z,1004.18
2018-12-15T00:22:49.298Z,1004.16
2018-12-15T00:23:54.817Z,1004.14
2018-12-15T00:25:00.825Z,1004.14
2018-12-15T00:26:07.283Z,1004.16
2018-12-15T00:27:12.839Z,1004.14
2018-12-15T00:28:18.841Z,1004.16
2018-12-15T00:29:25.347Z,1004.19
2018-12-15T00:30:31.359Z,1004.25
2018-12-15T00:31:36.872Z,1004.29
2018-12-15T00:32:42.878Z,1004.34
2018-12-15T00:33:50.378Z,1004.40
2018-12-15T00:34:54.904Z,1004.42
2018-12-15T00:36:00.920Z,1004.51
2018-12-15T00:37:06.917Z,1004.55
2018-12-15T00:38:12.923Z,1004.61
2018-12-15T00:39:19.420Z,1004.67
2018-12-15T00:40:24.939Z,1004.71
2018-12-15T00:41:30.945Z,1004.71
2018-12-15T00:42:36.952Z,1004.76
2018-12-15T00:43:42.959Z,1004.79
2018-12-15T00:44:48.970Z,1004.88
2018-12-15T00:45:54.974Z,1004.97
2018-12-15T00:47:00.992Z,1005.04
2018-12-15T00:48:06.993Z,1005.09
2018-12-15T00:49:13.579Z,1005.15
2018-12-15T00:50:18.999Z,1005.24
2018-12-15T00:51:25.014Z,1005.32
2018-12-15T00:52:31.036Z,1005.35
2018-12-15T00:53:37.028Z,1005.40
2018-12-15T00:54:43.039Z,1005.36
2018-12-15T00:55:49.052Z,1005.35
2018-12-15T00:56:55.051Z,1005.38
2018-12-15T00:58:01.577Z,1005.42
2018-12-15T00:59:07.065Z,1005.39
2018-12-15T01:00:13.082Z,1005.44
2018-12-15T01:01:19.082Z,1005.42
2018-12-15T01:02:25.086Z,1005.41
2018-12-15T01:03:31.122Z,1005.43
2018-12-15T01:04:37.136Z,1005.50
2018-12-15T01:05:43.109Z,1005.54
2018-12-15T01:06:49.124Z,1005.57
2018-12-15T01:07:55.131Z,1005.63
2018-12-15T01:09:01.154Z,1005.64
2018-12-15T01:10:07.657Z,1005.67
2018-12-15T01:11:13.647Z,1005.70
2018-12-15T01:12:19.660Z,1005.67
2018-12-15T01:13:25.183Z,1005.65
2018-12-15T01:14:31.178Z,1005.61
2018-12-15T01:15:37.208Z,1005.57
2018-12-15T01:16:43.697Z,1005.57
2018-12-15T01:17:49.708Z,1005.60
2018-12-15T01:18:55.222Z,1005.61
2018-12-15T01:20:01.237Z,1005.64
2018-12-15T01:21:07.240Z,1005.67
2018-12-15T01:22:13.742Z,1005.67
2018-12-15T01:23:19.258Z,1005.74
2018-12-15T01:24:25.260Z,1005.74
2018-12-15T01:25:31.272Z,1005.77
2018-12-15T01:26:37.276Z,1005.80
2018-12-15T01:27:43.286Z,1005.82
2018-12-15T01:28:49.314Z,1005.91
2018-12-15T01:29:55.305Z,1005.91
2018-12-15T01:31:01.806Z,1005.97
2018-12-15T01:32:07.345Z,1006.02
2018-12-15T01:33:13.530Z,1006.02
2018-12-15T01:34:19.350Z,1006.00
2018-12-15T01:35:25.366Z,1006.00
2018-12-15T01:36:31.371Z,1005.96
2018-12-15T01:37:37.879Z,1006.04
2018-12-15T01:38:43.384Z,1005.99
2018-12-15T01:39:49.394Z,1006.05
2018-12-15T01:40:55.410Z,1006.07
2018-12-15T01:42:01.416Z,1006.14
2018-12-15T01:43:07.437Z,1006.15
2018-12-15T01:44:13.434Z,1006.17
2018-12-15T01:45:19.438Z,1006.16
2018-12-15T01:46:25.455Z,1006.16
2018-12-15T01:47:31.574Z,1006.15
2018-12-15T01:48:37.459Z,1006.17
2018-12-15T01:49:43.976Z,1006.16
2018-12-15T01:50:49.484Z,1006.15
2018-12-15T01:51:55.490Z,1006.16
2018-12-15T01:53:01.610Z,1006.15
2018-12-15T01:54:07.993Z,1006.12
2018-12-15T01:55:13.522Z,1006.14
2018-12-15T01:56:19.533Z,1006.20
2018-12-15T01:57:25.535Z,1006.08
2018-12-15T01:58:31.554Z,1006.08
2018-12-15T01:59:37.548Z,1005.94
2018-12-15T02:00:44.561Z,1005.84
2018-12-15T02:01:49.578Z,1005.80
2018-12-15T02:02:55.586Z,1005.80
2018-12-15T02:04:01.584Z,1005.76
2018-12-15T02:05:07.591Z,1005.72
2018-12-15T02:06:13.689Z,1005.66
2018-12-15T02:07:20.107Z,1005.67
2018-12-15T02:08:25.643Z,1005.62
2018-12-15T02:09:31.635Z,1005.56
2018-12-15T02:10:37.641Z,1005.52
2018-12-15T02:11:43.651Z,1005.47
2018-12-15T02:12:49.650Z,1005.48
2018-12-15T02:13:56.153Z,1005.51
2018-12-15T02:15:01.668Z,1005.51
2018-12-15T02:16:07.688Z,1005.50
2018-12-15T02:17:13.692Z,1005.48
2018-12-15T02:18:19.688Z,1005.39
2018-12-15T02:19:25.701Z,1005.38
2018-12-15T02:20:31.708Z,1005.30
2018-12-15T02:21:37.714Z,1005.24
2018-12-15T02:22:43.719Z,1005.24
2018-12-15T02:23:49.716Z,1005.22
2018-12-15T02:24:55.758Z,1005.28
2018-12-15T02:26:02.222Z,1005.34
2018-12-15T02:27:07.751Z,1005.40
2018-12-15T02:28:13.761Z,1005.51
2018-12-15T02:29:19.753Z,1005.51
2018-12-15T02:30:25.774Z,1005.56
2018-12-15T02:31:32.281Z,1005.62
2018-12-15T02:32:37.780Z,1005.63
2018-12-15T02:33:43.787Z,1005.66
2018-12-15T02:34:50.297Z,1005.74
2018-12-15T02:35:55.808Z,1005.78
2018-12-15T02:37:01.826Z,1005.81
2018-12-15T02:38:07.827Z,1005.90
2018-12-15T02:39:13.838Z,1005.92
2018-12-15T02:40:19.849Z,1005.90
2018-12-15T02:41:26.352Z,1005.89
2018-12-15T02:42:32.376Z,1005.83
2018-12-15T02:43:37.869Z,1005.80
2018-12-15T02:44:43.877Z,1005.81
2018-12-15T02:45:49.884Z,1005.78
2018-12-15T02:46:55.908Z,1005.76
2018-12-15T02:48:01.900Z,1005.74
2018-12-15T02:49:07.906Z,1005.73
2018-12-15T02:50:14.919Z,1005.73
2018-12-15T02:51:20.436Z,1005.75
2018-12-15T02:52:25.951Z,1005.78
2018-12-15T02:53:32.454Z,1005.81
2018-12-15T02:54:37.959Z,1005.80
2018-12-15T02:55:43.979Z,1005.84
2018-12-15T02:56:50.000Z,1005.85
2018-12-15T02:57:55.986Z,1005.83
2018-12-15T02:59:02.000Z,1005.91
2018-12-15T03:00:08.009Z,1005.98
2018-12-15T03:01:14.036Z,1005.98
2018-12-15T03:02:20.041Z,1005.98
2018-12-15T03:03:26.580Z,1005.98
2018-12-15T03:04:32.060Z,1005.95
2018-12-15T03:05:38.071Z,1005.98
2018-12-15T03:06:44.066Z,1006.04
2018-12-15T03:07:51.092Z,1006.06
2018-12-15T03:08:56.091Z,1006.18
2018-12-15T03:10:02.115Z,1006.15
2018-12-15T03:11:08.108Z,1006.16
2018-12-15T03:12:14.136Z,1006.14
2018-12-15T03:13:21.125Z,1006.13
2018-12-15T03:14:26.151Z,1006.05
2018-12-15T03:15:32.157Z,1006.08
2018-12-15T03:16:38.154Z,1006.02
2018-12-15T03:17:48.871Z,1006.04
2018-12-15T03:18:50.664Z,1005.94
2018-12-15T03:19:56.169Z,1005.96
2018-12-15T03:21:02.185Z,1005.95
2018-12-15T03:22:08.197Z,1006.02
2018-12-15T03:23:14.200Z,1006.05
2018-12-15T03:24:21.199Z,1006.11
2018-12-15T03:25:26.208Z,1006.17
2018-12-15T03:26:32.722Z,1006.18
2018-12-15T03:27:38.243Z,1006.23
2018-12-15T03:28:44.237Z,1006.24
2018-12-15T03:29:50.249Z,1006.19
2018-12-15T03:30:56.251Z,1006.24
2018-12-15T03:32:02.292Z,1006.25
2018-12-15T03:33:08.275Z,1006.27
2018-12-15T03:34:14.263Z,1006.24
2018-12-15T03:35:20.280Z,1006.28
2018-12-15T03:36:26.276Z,1006.26
2018-12-15T03:37:32.788Z,1006.25
2018-12-15T03:38:38.799Z,1006.30
2018-12-15T03:39:44.305Z,1006.37
2018-12-15T03:40:50.304Z,1006.42
2018-12-15T03:41:56.311Z,1006.48
2018-12-15T03:43:02.328Z,1006.49
2018-12-15T03:44:08.321Z,1006.51
2018-12-15T03:45:14.334Z,1006.48
2018-12-15T03:46:20.351Z,1006.46
2018-12-15T03:47:26.346Z,1006.45
2018-12-15T03:48:32.854Z,1006.51
2018-12-15T03:49:38.840Z,1006.51
2018-12-15T03:50:44.376Z,1006.49
2018-12-15T03:51:50.858Z,1006.52
2018-12-15T03:52:56.375Z,1006.52
2018-12-15T03:54:02.382Z,1006.52
2018-12-15T03:55:08.396Z,1006.55
2018-12-15T03:56:14.410Z,1006.53
2018-12-15T03:57:20.909Z,1006.50
2018-12-15T03:58:26.436Z,1006.54
2018-12-15T03:59:32.921Z,1006.52
2018-12-15T04:00:38.417Z,1006.52
2018-12-15T04:01:44.426Z,1006.43
2018-12-15T04:02:50.434Z,1006.42
2018-12-15T04:03:56.448Z,1006.38
2018-12-15T04:05:02.449Z,1006.37
2018-12-15T04:06:08.444Z,1006.36
2018-12-15T04:07:14.582Z,1006.28
2018-12-15T04:08:20.583Z,1006.29
2018-12-15T04:09:26.970Z,1006.14
2018-12-15T04:10:32.487Z,1005.97
2018-12-15T04:11:39.004Z,1005.87
2018-12-15T04:12:44.996Z,1005.81
2018-12-15T04:13:50.617Z,1005.76
2018-12-15T04:14:56.506Z,1005.67
2018-12-15T04:16:03.003Z,1005.66
2018-12-15T04:17:08.537Z,1005.62
2018-12-15T04:18:15.035Z,1005.62
2018-12-15T04:19:20.543Z,1005.63
2018-12-15T04:20:26.545Z,1005.65
2018-12-15T04:21:32.566Z,1005.66
2018-12-15T04:22:38.564Z,1005.66
2018-12-15T04:23:44.581Z,1005.62
2018-12-15T04:24:50.586Z,1005.59
2018-12-15T04:25:56.590Z,1005.59
2018-12-15T04:27:02.598Z,1005.62
2018-12-15T04:28:09.107Z,1005.67
2018-12-15T04:29:14.619Z,1005.66
2018-12-15T04:30:21.118Z,1005.79
2018-12-15T04:31:26.625Z,1005.77
2018-12-15T04:32:32.627Z,1005.80
2018-12-15T04:33:38.658Z,1005.79
2018-12-15T04:34:44.659Z,1005.78
2018-12-15T04:35:51.150Z,1005.76
2018-12-15T04:36:56.663Z,1005.77
2018-12-15T04:38:02.689Z,1005.82
2018-12-15T04:39:09.178Z,1005.82
2018-12-15T04:40:14.687Z,1005.79
2018-12-15T04:41:20.705Z,1005.78
2018-12-15T04:42:26.707Z,1005.79
2018-12-15T04:43:32.723Z,1005.78
2018-12-15T04:44:38.734Z,1005.75
2018-12-15T04:45:44.746Z,1005.79
2018-12-15T04:46:50.755Z,1005.77
2018-12-15T04:47:56.763Z,1005.80
2018-12-15T04:49:02.776Z,1005.77
2018-12-15T04:50:08.782Z,1005.79
2018-12-15T04:51:14.839Z,1005.78
2018-12-15T04:52:20.879Z,1005.75
2018-12-15T04:53:27.303Z,1005.71
2018-12-15T04:54:33.321Z,1005.58
2018-12-15T04:55:38.830Z,1005.54
2018-12-15T04:56:44.844Z,1005.45
2018-12-15T04:57:51.343Z,1005.43
2018-12-15T04:58:57.350Z,1005.40
2018-12-15T05:00:03.869Z,1005.41
2018-12-15T05:01:09.366Z,1005.42
2018-12-15T05:02:15.384Z,1005.38
2018-12-15T05:03:20.929Z,1005.35
2018-12-15T05:04:26.916Z,1005.38
2018-12-15T05:05:32.918Z,1005.47
2018-12-15T05:06:38.929Z,1005.49
2018-12-15T05:07:44.938Z,1005.52
2018-12-15T05:08:50.947Z,1005.43
2018-12-15T05:09:56.960Z,1005.28
2018-12-15T05:11:02.972Z,1005.21
2018-12-15T05:12:08.977Z,1005.11
2018-12-15T05:13:14.990Z,1005.08
2018-12-15T05:14:21.018Z,1005.08
2018-12-15T05:15:27.011Z,1005.09
2018-12-15T05:16:33.014Z,1005.09
2018-12-15T05:17:39.029Z,1005.07
2018-12-15T05:18:45.037Z,1005.12
2018-12-15T05:19:51.059Z,1005.13
2018-12-15T05:20:57.062Z,1005.17
2018-12-15T05:22:03.061Z,1005.18
2018-12-15T05:23:09.575Z,1005.17
2018-12-15T05:24:15.098Z,1005.19
2018-12-15T05:25:21.589Z,1005.23
2018-12-15T05:26:27.103Z,1005.25
2018-12-15T05:27:33.601Z,1005.28
2018-12-15T05:28:39.428Z,1005.31
2018-12-15T05:29:45.138Z,1005.28
2018-12-15T05:30:51.640Z,1005.33
2018-12-15T05:31:57.152Z,1005.34
2018-12-15T05:33:03.154Z,1005.34
2018-12-15T05:34:09.170Z,1005.36
2018-12-15T05:35:15.181Z,1005.37
2018-12-15T05:36:21.190Z,1005.39
2018-12-15T05:37:27.195Z,1005.41
2018-12-15T05:38:33.714Z,1005.43
2018-12-15T05:39:39.226Z,1005.53
2018-12-15T05:40:45.269Z,1005.59
2018-12-15T05:41:51.229Z,1005.64
2018-12-15T05:42:57.246Z,1005.66
2018-12-15T05:44:03.262Z,1005.60
2018-12-15T05:45:09.279Z,1005.47
2018-12-15T05:46:15.280Z,1005.38
2018-12-15T05:47:21.284Z,1005.28
2018-12-15T05:48:27.293Z,1005.18
2018-12-15T05:49:33.806Z,1005.21
2018-12-15T05:50:39.311Z,1005.15
2018-12-15T05:51:45.316Z,1005.14
2018-12-15T05:52:51.330Z,1005.18
2018-12-15T05:53:57.833Z,1005.18
2018-12-15T05:55:03.346Z,1005.19
2018-12-15T05:56:09.359Z,1005.18
2018-12-15T05:57:15.360Z,1005.18
2018-12-15T05:58:21.388Z,1005.22
2018-12-15T05:59:27.382Z,1005.15
2018-12-15T06:00:33.396Z,1005.16
2018-12-15T06:01:40.390Z,1005.19
2018-12-15T06:02:45.931Z,1005.27
2018-12-15T06:03:51.419Z,1005.23
2018-12-15T06:04:57.437Z,1005.22
2018-12-15T06:06:03.448Z,1005.22
2018-12-15T06:07:09.490Z,1005.23
2018-12-15T06:08:15.971Z,1005.18
2018-12-15T06:09:21.470Z,1005.17
2018-12-15T06:10:27.489Z,1005.15
2018-12-15T06:11:33.484Z,1005.15
2018-12-15T06:12:39.496Z,1005.17
2018-12-15T06:13:45.500Z,1005.25
2018-12-15T06:14:51.512Z,1005.34
2018-12-15T06:15:57.527Z,1005.40
2018-12-15T06:17:04.587Z,1005.44
2018-12-15T06:18:09.539Z,1005.47
2018-12-15T06:19:15.554Z,1005.49
2018-12-15T06:20:21.555Z,1005.50
2018-12-15T06:21:27.546Z,1005.55
2018-12-15T06:22:33.555Z,1005.59
2018-12-15T06:23:39.563Z,1005.61
2018-12-15T06:24:45.573Z,1005.62
2018-12-15T06:25:51.595Z,1005.54
2018-12-15T06:26:58.087Z,1005.49
2018-12-15T06:28:03.594Z,1005.43
2018-12-15T06:29:09.609Z,1005.43
2018-12-15T06:30:15.636Z,1005.45
2018-12-15T06:31:21.631Z,1005.39
2018-12-15T06:32:29.119Z,1005.44
2018-12-15T06:33:34.639Z,1005.49
2018-12-15T06:34:39.847Z,1005.51
2018-12-15T06:35:46.170Z,1005.55
2018-12-15T06:36:51.665Z,1005.56
2018-12-15T06:37:57.678Z,1005.61
2018-12-15T06:39:03.685Z,1005.66
2018-12-15T06:40:09.697Z,1005.69
2018-12-15T06:41:16.191Z,1005.73
2018-12-15T06:42:21.702Z,1005.78
2018-12-15T06:43:27.711Z,1005.79
2018-12-15T06:44:33.727Z,1005.86
2018-12-15T06:45:39.738Z,1005.89
2018-12-15T06:46:45.758Z,1005.97
2018-12-15T06:47:51.757Z,1006.08
2018-12-15T06:48:57.764Z,1006.17
2018-12-15T06:50:04.265Z,1006.22
2018-12-15T06:51:09.793Z,1006.28
2018-12-15T06:52:15.792Z,1006.37
2018-12-15T06:53:22.798Z,1006.39
2018-12-15T06:54:28.007Z,1006.40
2018-12-15T06:55:34.315Z,1006.49
2018-12-15T06:56:39.837Z,1006.48
2018-12-15T06:57:45.834Z,1006.50
2018-12-15T06:58:51.841Z,1006.47
2018-12-15T06:59:57.863Z,1006.46
2018-12-15T07:01:03.874Z,1006.38
2018-12-15T07:02:09.872Z,1006.28
2018-12-15T07:03:15.874Z,1006.21
2018-12-15T07:04:21.905Z,1006.10
2018-12-15T07:05:27.899Z,1006.10
2018-12-15T07:06:34.448Z,1006.08
2018-12-15T07:07:39.922Z,1006.12
2018-12-15T07:08:45.917Z,1006.13
2018-12-15T07:09:51.933Z,1006.19
2018-12-15T07:10:58.425Z,1006.20
2018-12-15T07:12:03.947Z,1006.27
2018-12-15T07:13:10.961Z,1006.22
2018-12-15T07:14:15.965Z,1006.25
2018-12-15T07:15:21.973Z,1006.27
2018-12-15T07:16:27.982Z,1006.34
2018-12-15T07:17:33.991Z,1006.28
2018-12-15T07:18:44.737Z,1006.32
2018-12-15T07:19:46.505Z,1006.33
2018-12-15T07:20:52.013Z,1006.39
2018-12-15T07:21:58.026Z,1006.38
2018-12-15T07:23:04.033Z,1006.36
2018-12-15T07:24:10.036Z,1006.33
2018-12-15T07:25:16.051Z,1006.29
2018-12-15T07:26:22.578Z,1006.27
2018-12-15T07:27:28.071Z,1006.27
2018-12-15T07:28:34.073Z,1006.20
2018-12-15T07:29:40.080Z,1006.11
2018-12-15T07:30:46.593Z,1006.02
2018-12-15T07:31:52.104Z,1005.96
2018-12-15T07:32:58.117Z,1005.94
2018-12-15T07:34:04.126Z,1005.93
2018-12-15T07:35:10.627Z,1005.93
2018-12-15T07:36:16.142Z,1005.99
2018-12-15T07:37:22.156Z,1006.03
2018-12-15T07:38:28.659Z,1006.04
2018-12-15T07:39:34.174Z,1006.06
2018-12-15T07:40:40.189Z,1006.05
2018-12-15T07:41:46.203Z,1006.13
2018-12-15T07:42:52.215Z,1006.21
2018-12-15T07:43:58.723Z,1006.34
2018-12-15T07:45:04.233Z,1006.40
2018-12-15T07:46:10.776Z,1006.52
2018-12-15T07:47:16.264Z,1006.51
2018-12-15T07:48:22.276Z,1006.53
2018-12-15T07:49:28.281Z,1006.57
2018-12-15T07:50:34.295Z,1006.58
2018-12-15T07:51:40.346Z,1006.56
2018-12-15T07:52:46.320Z,1006.52
2018-12-15T07:53:52.319Z,1006.50
2018-12-15T07:54:58.837Z,1006.48
2018-12-15T07:56:04.346Z,1006.47
2018-12-15T07:57:11.026Z,1006.43
2018-12-15T07:58:16.383Z,1006.39
2018-12-15T07:59:22.381Z,1006.38
2018-12-15T08:00:28.877Z,1006.37
2018-12-15T08:01:34.407Z,1006.36
2018-12-15T08:02:41.425Z,1006.41
2018-12-15T08:03:46.920Z,1006.35
2018-12-15T08:04:52.436Z,1006.38
2018-12-15T08:05:58.599Z,1006.39
2018-12-15T08:07:04.600Z,1006.40
2018-12-15T08:08:10.501Z,1006.43
2018-12-15T08:09:16.605Z,1006.47
2018-12-15T08:10:22.552Z,1006.48
2018-12-15T08:11:28.521Z,1006.58
2018-12-15T08:12:34.528Z,1006.55
2018-12-15T08:13:40.542Z,1006.54
2018-12-15T08:14:47.051Z,1006.49
2018-12-15T08:15:52.571Z,1006.53
2018-12-15T08:16:59.070Z,1006.52
2018-12-15T08:18:05.596Z,1006.48
2018-12-15T08:19:10.609Z,1006.43
2018-12-15T08:20:17.103Z,1006.36
2018-12-15T08:21:24.113Z,1006.24
2018-12-15T08:22:29.146Z,1006.22
2018-12-15T08:23:35.181Z,1006.19
2018-12-15T08:24:41.185Z,1006.09
2018-12-15T08:25:46.715Z,1006.07
2018-12-15T08:26:53.207Z,1006.03
2018-12-15T08:27:58.729Z,1006.03
2018-12-15T08:29:04.754Z,1006.04
2018-12-15T08:30:10.756Z,1006.02
2018-12-15T08:31:17.281Z,1006.02
2018-12-15T08:32:22.814Z,1006.01
2018-12-15T08:33:28.824Z,1006.06
2018-12-15T08:34:34.827Z,1006.03
2018-12-15T08:35:40.835Z,1006.03
2018-12-15T08:36:47.359Z,1005.93
2018-12-15T08:37:52.880Z,1005.92
2018-12-15T08:38:59.397Z,1005.99
2018-12-15T08:40:04.929Z,1005.96
2018-12-15T08:41:11.431Z,1006.00
2018-12-15T08:42:17.452Z,1006.04
2018-12-15T08:43:22.965Z,1005.97
2018-12-15T08:44:29.000Z,1006.02
2018-12-15T08:45:35.006Z,1005.95
2018-12-15T08:46:41.025Z,1005.95
2018-12-15T08:47:47.039Z,1005.94
2018-12-15T08:48:53.058Z,1005.91
2018-12-15T08:49:59.079Z,1005.87
2018-12-15T08:51:05.288Z,1005.90
2018-12-15T08:52:11.126Z,1005.92
2018-12-15T08:53:17.133Z,1005.93
2018-12-15T08:54:23.162Z,1005.90
2018-12-15T08:55:29.679Z,1005.87
2018-12-15T08:56:35.690Z,1005.89
2018-12-15T08:57:41.720Z,1005.90
2018-12-15T08:58:47.265Z,1005.91
2018-12-15T08:59:53.287Z,1005.91
2018-12-15T09:00:59.793Z,1005.92
2018-12-15T09:02:05.333Z,1005.91
2018-12-15T09:03:11.354Z,1005.97
2018-12-15T09:04:17.378Z,1006.00
2018-12-15T09:05:23.390Z,1006.04
2018-12-15T09:06:29.939Z,1006.12
2018-12-15T09:07:36.448Z,1006.10
2018-12-15T09:08:41.973Z,1006.08
2018-12-15T09:09:47.509Z,1006.09
2018-12-15T09:10:53.524Z,1006.09
2018-12-15T09:11:59.562Z,1006.13
2018-12-15T09:13:05.598Z,1006.17
2018-12-15T09:14:11.615Z,1006.15
2018-12-15T09:15:17.668Z,1006.15
2018-12-15T09:16:26.613Z,1006.13
2018-12-15T09:17:29.708Z,1006.13
2018-12-15T09:18:35.731Z,1006.04
2018-12-15T09:19:41.778Z,1006.02
2018-12-15T09:20:48.790Z,1005.95
2018-12-15T09:21:53.834Z,1005.95
2018-12-15T09:22:59.863Z,1006.02
2018-12-15T09:24:06.383Z,1005.93
2018-12-15T09:25:11.945Z,1005.96
2018-12-15T09:26:17.952Z,1005.93
2018-12-15T09:27:24.003Z,1005.84
2018-12-15T09:28:30.020Z,1005.74
2018-12-15T09:29:36.047Z,1005.65
2018-12-15T09:30:42.106Z,1005.51
2018-12-15T09:31:49.117Z,1005.51
2018-12-15T09:32:54.153Z,1005.49
2018-12-15T09:34:00.186Z,1005.43
2018-12-15T09:35:06.719Z,1005.44
2018-12-15T09:36:12.235Z,1005.45
2018-12-15T09:37:18.283Z,1005.47
2018-12-15T09:38:24.320Z,1005.52
2018-12-15T09:39:30.337Z,1005.43
2018-12-15T09:40:36.386Z,1005.43
2018-12-15T09:41:42.896Z,1005.48
2018-12-15T09:42:48.442Z,1005.46
2018-12-15T09:43:54.583Z,1005.39
2018-12-15T09:45:00.537Z,1005.29
2018-12-15T09:46:06.567Z,1005.24
2018-12-15T09:47:13.089Z,1005.26
2018-12-15T09:48:19.132Z,1005.28
2018-12-15T09:49:24.674Z,1005.25
2018-12-15T09:50:30.725Z,1005.24
2018-12-15T09:51:36.753Z,1005.12
2018-12-15T09:52:42.799Z,1005.11
2018-12-15T09:53:48.844Z,1005.09
2018-12-15T09:54:54.872Z,1005.10
2018-12-15T09:56:01.421Z,1005.13
2018-12-15T09:57:06.954Z,1005.07
2018-12-15T09:58:13.004Z,1005.05
2018-12-15T09:59:19.047Z,1005.03
2018-12-15T10:00:25.097Z,1004.99
2018-12-15T10:01:31.138Z,1004.89
2018-12-15T10:02:38.665Z,1004.95
2018-12-15T10:03:43.717Z,1004.88
2018-12-15T10:04:49.767Z,1004.85
2018-12-15T10:05:55.327Z,1004.80
2018-12-15T10:07:01.357Z,1004.79
2018-12-15T10:08:07.399Z,1004.72
2018-12-15T10:09:13.443Z,1004.73
2018-12-15T10:10:19.494Z,1004.74
2018-12-15T10:11:25.542Z,1004.64
2018-12-15T10:12:31.599Z,1004.61
2018-12-15T10:13:37.619Z,1004.53
2018-12-15T10:14:43.665Z,1004.46
2018-12-15T10:15:50.041Z,1004.49
2018-12-15T10:16:55.755Z,1004.47
2018-12-15T10:18:01.800Z,1004.44
2018-12-15T10:19:07.851Z,1004.46
2018-12-15T10:20:13.896Z,1004.47
2018-12-15T10:21:19.946Z,1004.53
2018-12-15T10:22:25.987Z,1004.52
2018-12-15T10:23:32.032Z,1004.54
2018-12-15T10:24:38.095Z,1004.59
2018-12-15T10:25:44.627Z,1004.37
2018-12-15T10:26:50.176Z,1004.17
2018-12-15T10:27:56.221Z,1003.99
2018-12-15T10:29:02.763Z,1003.85
2018-12-15T10:30:08.317Z,1003.84
2018-12-15T10:31:14.861Z,1003.83
2018-12-15T10:32:20.902Z,1003.76
2018-12-15T10:33:26.950Z,1003.84
2018-12-15T10:34:32.607Z,1003.89
2018-12-15T10:35:38.537Z,1003.98
2018-12-15T10:36:46.082Z,1004.11
2018-12-15T10:37:50.642Z,1004.20
2018-12-15T10:38:56.683Z,1004.32
2018-12-15T10:40:02.737Z,1004.44
2018-12-15T10:41:09.279Z,1004.49
2018-12-15T10:42:16.196Z,1004.49
2018-12-15T10:43:20.875Z,1004.37
2018-12-15T10:44:26.920Z,1004.13
2018-12-15T10:45:32.970Z,1004.02
2018-12-15T10:46:39.027Z,1003.91
2018-12-15T10:47:45.082Z,1003.73
2018-12-15T10:48:51.122Z,1003.66
2018-12-15T10:49:57.173Z,1003.62
2018-12-15T10:51:03.721Z,1003.51
2018-12-15T10:52:09.784Z,1003.49
2018-12-15T10:53:15.826Z,1003.39
2018-12-15T10:54:21.883Z,1003.38
2018-12-15T10:55:27.445Z,1003.39
2018-12-15T10:56:33.505Z,1003.42
2018-12-15T10:57:39.543Z,1003.45
2018-12-15T10:58:46.086Z,1003.42
2018-12-15T10:59:51.651Z,1003.41
2018-12-15T11:00:57.698Z,1003.32
2018-12-15T11:02:03.752Z,1003.21
2018-12-15T11:03:09.815Z,1003.07
2018-12-15T11:04:16.355Z,1002.97
2018-12-15T11:05:21.921Z,1002.85
2018-12-15T11:06:28.166Z,1002.83
2018-12-15T11:07:34.335Z,1002.72
2018-12-15T11:08:40.083Z,1002.68
2018-12-15T11:09:46.134Z,1002.64
2018-12-15T11:10:52.683Z,1002.65
2018-12-15T11:11:58.250Z,1002.71
2018-12-15T11:13:04.301Z,1002.76
2018-12-15T11:14:10.370Z,1002.77
2018-12-15T11:15:16.415Z,1002.76
2018-12-15T11:16:22.464Z,1002.73
2018-12-15T11:17:28.525Z,1002.69
2018-12-15T11:18:34.574Z,1002.62
2018-12-15T11:19:40.625Z,1002.63
2018-12-15T11:20:46.683Z,1002.60
2018-12-15T11:21:52.748Z,1002.69
2018-12-15T11:22:58.813Z,1002.67
2018-12-15T11:24:04.865Z,1002.79
2018-12-15T11:25:10.914Z,1002.96
2018-12-15T11:26:16.972Z,1003.05
2018-12-15T11:27:24.035Z,1003.09
2018-12-15T11:28:29.597Z,1003.10
2018-12-15T11:29:35.157Z,1003.09
2018-12-15T11:30:41.204Z,1003.08
2018-12-15T11:31:48.752Z,1003.05
2018-12-15T11:32:53.327Z,1003.05
2018-12-15T11:33:59.393Z,1003.03
2018-12-15T11:35:05.450Z,1003.09
2018-12-15T11:36:11.501Z,1003.16
2018-12-15T11:37:17.560Z,1003.11
2018-12-15T11:38:23.895Z,1003.17
2018-12-15T11:39:29.669Z,1003.12
2018-12-15T11:40:36.727Z,1003.07
2018-12-15T11:41:41.788Z,1003.06
2018-12-15T11:42:47.841Z,1003.05
2018-12-15T11:43:53.912Z,1003.10
2018-12-15T11:44:59.951Z,1003.08
2018-12-15T11:46:06.018Z,1002.96
2018-12-15T11:47:12.066Z,1003.02
2018-12-15T11:48:18.140Z,1002.88
2018-12-15T11:49:24.201Z,1002.87
2018-12-15T11:50:30.239Z,1002.81
2018-12-15T11:51:36.300Z,1002.86
2018-12-15T11:52:42.363Z,1002.85
2018-12-15T11:53:49.909Z,1002.90
2018-12-15T11:54:54.582Z,1002.96
2018-12-15T11:56:00.530Z,1002.82
2018-12-15T11:57:06.582Z,1002.59
2018-12-15T11:58:12.628Z,1002.47
2018-12-15T11:59:18.702Z,1002.24
2018-12-15T12:00:25.239Z,1002.16
2018-12-15T12:01:30.818Z,1002.27
2018-12-15T12:02:36.860Z,1002.35
2018-12-15T12:03:42.928Z,1002.43
2018-12-15T12:04:48.991Z,1002.38
2018-12-15T12:05:55.035Z,1002.38
2018-12-15T12:07:01.097Z,1002.32
2018-12-15T12:08:07.159Z,1002.35
2018-12-15T12:09:13.742Z,1002.44
2018-12-15T12:10:19.270Z,1002.39
2018-12-15T12:11:25.332Z,1002.41
2018-12-15T12:12:31.990Z,1002.40
2018-12-15T12:13:37.957Z,1002.48
2018-12-15T12:14:43.529Z,1002.56
2018-12-15T12:15:50.078Z,1002.64
2018-12-15T12:16:56.126Z,1002.73
2018-12-15T12:18:01.687Z,1002.82
2018-12-15T12:19:07.756Z,1002.88
2018-12-15T12:20:13.820Z,1002.89
2018-12-15T12:21:20.367Z,1002.74
2018-12-15T12:22:25.935Z,1002.61
2018-12-15T12:23:31.992Z,1002.54
2018-12-15T12:24:38.600Z,1002.36
2018-12-15T12:25:44.112Z,1002.15
2018-12-15T12:26:50.669Z,1002.12
2018-12-15T12:27:56.228Z,1002.08
2018-12-15T12:29:02.288Z,1002.06
2018-12-15T12:30:08.351Z,1002.00
2018-12-15T12:31:14.396Z,1002.04
2018-12-15T12:32:21.954Z,1001.92
2018-12-15T12:33:27.013Z,1001.81
2018-12-15T12:34:32.582Z,1001.64
2018-12-15T12:35:38.654Z,1001.63
2018-12-15T12:36:44.710Z,1001.59
2018-12-15T12:37:51.701Z,1001.60
2018-12-15T12:38:56.811Z,1001.55
2018-12-15T12:40:03.906Z,1001.55
2018-12-15T12:41:08.933Z,1001.60
2018-12-15T12:42:14.992Z,1001.60
2018-12-15T12:43:21.043Z,1001.50
2018-12-15T12:44:27.590Z,1001.25
2018-12-15T12:45:33.167Z,1001.08
2018-12-15T12:46:39.712Z,1001.06
2018-12-15T12:47:45.286Z,1001.06
2018-12-15T12:48:51.527Z,1001.14
2018-12-15T12:49:57.393Z,1001.21
2018-12-15T12:51:03.449Z,1001.31
2018-12-15T12:52:09.499Z,1001.33
2018-12-15T12:53:15.556Z,1001.36
2018-12-15T12:54:22.097Z,1001.41
2018-12-15T12:55:27.676Z,1001.32
2018-12-15T12:56:33.730Z,1001.28
2018-12-15T12:57:40.271Z,1001.28
2018-12-15T12:58:45.845Z,1001.43
2018-12-15T12:59:51.899Z,1001.56
2018-12-15T13:00:57.958Z,1001.77
2018-12-15T13:02:04.584Z,1001.76
2018-12-15T13:03:10.585Z,1001.78
2018-12-15T13:04:16.127Z,1001.76
2018-12-15T13:05:22.675Z,1001.74
2018-12-15T13:06:28.309Z,1001.71
2018-12-15T13:07:34.300Z,1001.71
2018-12-15T13:08:40.836Z,1001.79
2018-12-15T13:09:46.403Z,1001.85
2018-12-15T13:10:52.468Z,1001.92
2018-12-15T13:11:58.512Z,1001.91
2018-12-15T13:13:04.578Z,1001.84
2018-12-15T13:14:11.126Z,1001.76
2018-12-15T13:15:16.685Z,1001.75
2018-12-15T13:16:23.234Z,1001.78
2018-12-15T13:17:29.282Z,1001.80
2018-12-15T13:18:34.858Z,1001.83